Terminal Aerodrome Forecast
Issued by NWS

Home | Current Version | Previous Version | Text Only | Print | Product List | Glossary On
Versions: 1 2 3 4 5 6 7 8 9 10 11 12 13 14 15 16 17 18 19 20 21 22 23 24
000
FTUS41 KBOX 232329
TAFHYA
TAF
KHYA 232329Z 2400/2424 19007KT P6SM BKN130
     FM240900 16010G25KT P6SM OVC100
     FM241000 16012G30KT 5SM -RA BR OVC035
     FM241200 16016G40KT 3SM RA BR OVC015 WS020/18050KT
     FM241400 17017G40KT 2SM +RA BR OVC008 WS020/18055KT
     FM241500 18018G40KT 3SM RA BR OVC010 WS020/18060KT
     FM241700 19017G40KT P6SM OVC010 WS020/20055KT=

USA.gov is the U.S. government's official web portal to all federal, state and local government web resources and services.